Time;durP1;ratioP1;P1;durP2;ratioP2;P2;SDS_P1;SDS_P2;PMS_P1;PMS_P2;Temp;Humidity;BMP_temperature;BMP_pressure;BME280_temperature;BME280_humidity;BME280_pressure;Samples;Min_cycle;Max_cycle;Signal;HPM_P1;HPM_P2
2021/08/16 00:01:43;;;;;;;0.40;0.30;;;21.90;99.90;;;;;;5113537;28;20408;-73
2021/08/16 00:04:09;;;;;;;0.40;0.20;;;21.80;99.90;;;;;;5113167;28;20381;-73
2021/08/16 00:06:34;;;;;;;0.40;0.20;;;21.80;99.90;;;;;;5113730;28;20368;-73
2021/08/16 00:09:00;;;;;;;0.40;0.20;;;21.70;99.90;;;;;;5094616;28;20395;-72
2021/08/16 00:11:26;;;;;;;0.40;0.20;;;21.60;99.90;;;;;;5113492;28;20463;-73
2021/08/16 00:13:51;;;;;;;0.40;0.30;;;21.60;99.90;;;;;;5113451;28;20372;-73
2021/08/16 00:16:17;;;;;;;0.40;0.40;;;21.60;99.90;;;;;;5112767;28;20664;-73
2021/08/16 00:18:47;;;;;;;0.40;0.40;;;21.60;99.90;;;;;;5113445;28;20878;-73
2021/08/16 00:21:14;;;;;;;0.40;0.30;;;21.60;99.90;;;;;;5094397;28;20733;-73
2021/08/16 00:23:40;;;;;;;0.40;0.20;;;21.60;99.90;;;;;;5113219;28;20391;-74
2021/08/16 00:26:05;;;;;;;0.40;0.30;;;21.50;99.90;;;;;;5113122;28;20376;-73
2021/08/16 00:28:31;;;;;;;0.40;0.30;;;21.40;99.90;;;;;;5112925;28;20372;-73
2021/08/16 00:30:57;;;;;;;0.40;0.30;;;21.50;99.90;;;;;;5113174;28;20379;-73
2021/08/16 00:33:22;;;;;;;0.40;0.30;;;21.50;99.90;;;;;;5094591;28;20415;-72
2021/08/16 00:35:48;;;;;;;0.40;0.20;;;21.50;99.90;;;;;;5112762;28;20455;-73
2021/08/16 00:38:14;;;;;;;0.40;0.20;;;21.40;99.90;;;;;;5093359;28;20416;-73
2021/08/16 00:40:40;;;;;;;0.40;0.30;;;21.50;99.90;;;;;;5094180;28;20381;-73
2021/08/16 00:43:06;;;;;;;0.40;0.20;;;21.30;99.90;;;;;;5112067;28;20404;-73
2021/08/16 00:45:32;;;;;;;0.40;0.20;;;21.20;99.90;;;;;;5112805;28;20702;-73
2021/08/16 00:47:58;;;;;;;0.40;0.20;;;21.20;99.90;;;;;;5112760;28;20827;-73
2021/08/16 00:50:24;;;;;;;0.40;0.20;;;21.30;99.90;;;;;;5111959;28;20375;-75
2021/08/16 00:52:50;;;;;;;0.40;0.30;;;21.40;99.90;;;;;;5094441;28;20383;-75
2021/08/16 00:55:17;;;;;;;0.40;0.20;;;21.30;99.90;;;;;;5111753;28;20845;-75
2021/08/16 00:57:43;;;;;;;0.40;0.20;;;21.40;99.90;;;;;;5112622;28;20371;-74
2021/08/16 01:00:10;;;;;;;0.40;0.20;;;21.40;99.90;;;;;;5111743;28;20702;-74
2021/08/16 01:02:41;;;;;;;0.40;0.20;;;21.30;99.90;;;;;;5112409;28;20403;-75
2021/08/16 01:05:10;;;;;;;0.40;0.20;;;21.20;99.90;;;;;;5111954;28;20463;-75
2021/08/16 01:07:35;;;;;;;0.40;0.30;;;21.30;99.90;;;;;;5112475;28;20777;-75
2021/08/16 01:10:03;;;;;;;0.40;0.20;;;21.20;99.90;;;;;;5111451;28;20388;-73
2021/08/16 01:12:30;;;;;;;0.40;0.20;;;21.20;99.90;;;;;;5111692;28;20479;-73
2021/08/16 01:14:56;;;;;;;0.40;0.30;;;21.20;99.90;;;;;;5111995;28;20380;-72
2021/08/16 01:17:22;;;;;;;0.40;0.20;;;21.30;99.90;;;;;;5111734;28;20390;-73
2021/08/16 01:19:49;;;;;;;0.40;0.30;;;21.50;99.90;;;;;;5111782;28;20476;-73
2021/08/16 01:22:15;;;;;;;0.40;0.20;;;21.70;99.90;;;;;;5111350;28;20415;-73
2021/08/16 01:24:41;;;;;;;0.40;0.20;;;21.80;99.90;;;;;;5111941;28;20388;-73
2021/08/16 01:27:09;;;;;;;0.40;0.20;;;21.60;99.90;;;;;;5111394;28;20698;-72
2021/08/16 01:29:34;;;;;;;0.40;0.20;;;21.60;99.90;;;;;;5111921;28;20376;-73
2021/08/16 01:32:00;;;;;;;0.40;0.20;;;21.70;99.90;;;;;;5112233;28;20775;-73
2021/08/16 01:34:29;;;;;;;0.40;0.20;;;21.70;99.90;;;;;;5111175;28;20381;-73
2021/08/16 01:36:55;;;;;;;0.40;0.30;;;21.80;99.90;;;;;;5111880;28;20776;-73
2021/08/16 01:39:21;;;;;;;0.40;0.20;;;22.00;99.90;;;;;;5111109;28;20472;-73
2021/08/16 01:41:48;;;;;;;0.40;0.30;;;22.10;99.90;;;;;;5111504;28;20504;-73
2021/08/16 01:44:19;;;;;;;0.40;0.30;;;22.10;99.90;;;;;;5110961;28;20381;-72
2021/08/16 01:46:45;;;;;;;0.40;0.22;;;22.10;99.90;;;;;;5111795;28;20433;-73
2021/08/16 01:49:12;;;;;;;0.40;0.30;;;22.30;99.90;;;;;;5110197;28;20459;-73
2021/08/16 01:51:39;;;;;;;0.40;0.20;;;22.50;99.90;;;;;;5111710;28;20380;-74
2021/08/16 01:54:07;;;;;;;0.40;0.20;;;22.60;99.90;;;;;;5092650;28;20395;-72
2021/08/16 01:56:32;;;;;;;0.40;0.30;;;22.60;99.90;;;;;;5112058;28;20393;-73
2021/08/16 01:58:58;;;;;;;0.40;0.20;;;22.60;99.90;;;;;;5111127;28;20392;-74
2021/08/16 02:01:24;;;;;;;0.40;0.20;;;22.70;99.90;;;;;;5110476;28;20952;-76
2021/08/16 02:03:50;;;;;;;0.40;0.20;;;22.80;99.90;;;;;;5111385;28;20426;-74
2021/08/16 02:06:16;;;;;;;0.40;0.30;;;22.80;99.90;;;;;;5110857;28;20380;-73
2021/08/16 02:08:41;;;;;;;0.40;0.20;;;22.80;99.90;;;;;;5111014;28;20377;-73
2021/08/16 02:11:08;;;;;;;0.40;0.30;;;22.80;99.90;;;;;;5110949;28;20466;-74
2021/08/16 02:13:34;;;;;;;0.40;0.20;;;22.70;99.90;;;;;;5111059;28;20387;-73
2021/08/16 02:16:01;;;;;;;0.40;0.30;;;22.70;99.90;;;;;;5111620;28;20444;-73
2021/08/16 02:18:27;;;;;;;0.40;0.20;;;22.90;99.90;;;;;;5110884;28;20392;-72
2021/08/16 02:20:53;;;;;;;0.40;0.20;;;22.90;99.90;;;;;;5111276;28;20380;-72
2021/08/16 02:23:18;;;;;;;0.40;0.20;;;22.80;99.90;;;;;;5110488;28;20395;-72
2021/08/16 02:25:44;;;;;;;0.40;0.28;;;22.90;99.90;;;;;;5110926;28;20373;-72
2021/08/16 02:28:10;;;;;;;0.40;0.20;;;22.90;99.90;;;;;;5110650;28;20426;-75
2021/08/16 02:30:35;;;;;;;0.40;0.20;;;22.80;99.90;;;;;;5111248;28;20407;-72
2021/08/16 02:33:01;;;;;;;0.40;0.20;;;22.90;99.90;;;;;;5110893;28;20887;-72
2021/08/16 02:35:27;;;;;;;0.40;0.20;;;22.90;99.90;;;;;;5110388;28;20463;-71
2021/08/16 02:37:53;;;;;;;0.40;0.30;;;22.90;99.90;;;;;;5111109;28;20371;-72
2021/08/16 02:40:18;;;;;;;0.40;0.20;;;22.90;99.90;;;;;;5092059;28;20368;-74
2021/08/16 02:42:44;;;;;;;0.40;0.20;;;22.90;99.90;;;;;;5110632;28;20499;-74
2021/08/16 02:45:10;;;;;;;0.40;0.20;;;22.90;99.90;;;;;;5110422;28;20459;-74
2021/08/16 02:47:38;;;;;;;0.50;0.50;;;22.90;99.90;;;;;;5111072;28;20380;-73
2021/08/16 02:50:05;;;;;;;0.40;0.20;;;22.90;99.90;;;;;;5111002;28;20543;-72
2021/08/16 02:52:30;;;;;;;0.40;0.30;;;22.90;99.90;;;;;;5110091;28;20381;-73
2021/08/16 02:54:58;;;;;;;0.40;0.30;;;22.90;99.90;;;;;;5110659;28;20719;-72
2021/08/16 02:57:24;;;;;;;0.40;0.20;;;22.90;99.90;;;;;;5110325;28;20377;-73
2021/08/16 02:59:50;;;;;;;0.40;0.20;;;22.80;99.90;;;;;;5111295;28;20712;-73
2021/08/16 03:02:15;;;;;;;0.40;0.30;;;22.70;99.90;;;;;;5114169;28;20497;-74
2021/08/16 03:04:41;;;;;;;0.40;0.20;;;22.80;99.90;;;;;;5114490;28;20392;-72
2021/08/16 03:07:07;;;;;;;0.40;0.30;;;22.70;99.90;;;;;;5114677;28;20387;-72
2021/08/16 03:09:32;;;;;;;0.40;0.20;;;22.70;99.90;;;;;;5114309;28;20841;-73
2021/08/16 03:11:58;;;;;;;0.40;0.30;;;22.70;99.90;;;;;;5114680;28;20398;-73
2021/08/16 03:14:24;;;;;;;0.40;0.20;;;22.70;99.90;;;;;;5113710;28;20740;-74
2021/08/16 03:16:50;;;;;;;0.40;0.30;;;22.70;99.90;;;;;;5114210;28;20373;-74
2021/08/16 03:19:16;;;;;;;0.40;0.20;;;22.80;99.90;;;;;;5113577;28;20383;-72
2021/08/16 03:21:41;;;;;;;0.40;0.20;;;22.70;99.90;;;;;;5114418;28;20882;-73
2021/08/16 03:24:07;;;;;;;0.40;0.20;;;22.70;99.90;;;;;;5114333;28;20380;-72
2021/08/16 03:26:33;;;;;;;0.40;0.28;;;22.70;99.90;;;;;;5095493;28;20864;-73
2021/08/16 03:28:59;;;;;;;0.40;0.20;;;22.70;99.90;;;;;;5114064;28;20376;-72
2021/08/16 03:31:25;;;;;;;0.40;0.30;;;22.60;99.90;;;;;;5113783;28;20459;-72
2021/08/16 03:33:50;;;;;;;0.40;0.20;;;22.60;99.90;;;;;;5114323;28;20821;-73
2021/08/16 03:36:16;;;;;;;0.40;0.30;;;22.60;99.90;;;;;;5113511;28;20395;-72
2021/08/16 03:38:42;;;;;;;0.40;0.20;;;22.50;99.90;;;;;;5114204;28;20379;-74
2021/08/16 03:41:08;;;;;;;0.40;0.20;;;22.50;99.90;;;;;;5113601;28;20392;-73
2021/08/16 03:43:33;;;;;;;0.40;0.20;;;22.40;99.90;;;;;;5113406;28;20439;-74
2021/08/16 03:45:59;;;;;;;0.40;0.30;;;22.40;99.90;;;;;;5095750;28;20397;-74
2021/08/16 03:48:25;;;;;;;0.40;0.30;;;22.40;99.90;;;;;;5113646;28;20817;-74
2021/08/16 03:50:51;;;;;;;0.40;0.20;;;22.40;99.90;;;;;;5113695;28;20456;-74
2021/08/16 03:53:17;;;;;;;0.40;0.20;;;22.40;99.90;;;;;;5095149;28;20392;-73
2021/08/16 03:55:43;;;;;;;0.40;0.30;;;22.40;99.90;;;;;;5113773;28;20404;-73
2021/08/16 03:58:08;;;;;;;0.40;0.30;;;22.30;99.90;;;;;;5113431;28;20793;-74
2021/08/16 04:00:34;;;;;;;0.40;0.20;;;22.30;99.90;;;;;;5112897;28;20368;-74
2021/08/16 04:03:01;;;;;;;0.40;0.30;;;22.20;99.90;;;;;;5114099;28;20763;-74
2021/08/16 04:05:27;;;;;;;0.40;0.20;;;22.30;99.90;;;;;;5113421;28;20372;-73
2021/08/16 04:07:52;;;;;;;0.40;0.20;;;22.30;99.90;;;;;;5114063;28;20379;-73
2021/08/16 04:10:19;;;;;;;0.40;0.20;;;22.30;99.90;;;;;;5112918;28;20372;-74
2021/08/16 04:12:45;;;;;;;0.40;0.20;;;22.30;99.90;;;;;;5113586;28;20860;-74
2021/08/16 04:15:13;;;;;;;0.40;0.30;;;22.20;99.90;;;;;;5113768;28;20388;-75
2021/08/16 04:17:40;;;;;;;0.40;0.30;;;22.30;99.90;;;;;;5113799;28;20455;-72
2021/08/16 04:20:07;;;;;;;0.40;0.20;;;22.30;99.90;;;;;;5113499;28;20377;-73
2021/08/16 04:22:32;;;;;;;0.40;0.20;;;22.20;99.90;;;;;;5112786;28;20781;-73
2021/08/16 04:24:59;;;;;;;0.40;0.30;;;22.20;99.90;;;;;;5111712;28;20399;-74
2021/08/16 04:27:25;;;;;;;0.40;0.20;;;22.20;99.90;;;;;;5111961;28;20779;-73
2021/08/16 04:29:50;;;;;;;0.40;0.30;;;22.20;99.90;;;;;;5113275;28;20380;-73
2021/08/16 04:32:16;;;;;;;0.40;0.20;;;22.20;99.90;;;;;;5094535;28;20387;-74
2021/08/16 04:34:42;;;;;;;0.40;0.20;;;22.20;99.90;;;;;;5113248;28;20818;-73
2021/08/16 04:37:07;;;;;;;0.40;0.30;;;22.30;99.90;;;;;;5112928;28;20383;-73
2021/08/16 04:39:33;;;;;;;0.40;0.20;;;22.20;99.90;;;;;;5112545;28;20586;-73
2021/08/16 04:41:59;;;;;;;0.40;0.20;;;22.20;99.90;;;;;;5113001;28;20455;-73
2021/08/16 04:44:24;;;;;;;0.40;0.20;;;22.20;99.90;;;;;;5112244;28;20903;-73
2021/08/16 04:46:50;;;;;;;0.40;0.20;;;22.10;99.90;;;;;;5113195;28;20381;-74
2021/08/16 04:49:16;;;;;;;0.40;0.20;;;22.20;99.90;;;;;;5112146;28;20373;-73
2021/08/16 04:51:41;;;;;;;0.40;0.20;;;22.10;99.90;;;;;;5094548;28;20445;-74
2021/08/16 04:54:07;;;;;;;0.40;0.30;;;22.10;99.90;;;;;;5112963;28;20837;-73
2021/08/16 04:56:33;;;;;;;0.40;0.30;;;22.10;99.90;;;;;;5112165;28;20411;-73
2021/08/16 04:59:00;;;;;;;0.40;0.20;;;22.00;99.90;;;;;;5112464;28;20557;-73
2021/08/16 05:01:26;;;;;;;0.40;0.20;;;22.10;99.90;;;;;;5111855;28;20406;-73
2021/08/16 05:03:52;;;;;;;0.40;0.20;;;22.10;99.90;;;;;;5112723;28;20381;-73
2021/08/16 05:06:18;;;;;;;0.40;0.30;;;22.00;99.90;;;;;;5111871;28;20425;-73
2021/08/16 05:08:43;;;;;;;0.40;0.30;;;22.00;99.90;;;;;;5112808;28;20414;-74
2021/08/16 05:11:09;;;;;;;0.40;0.20;;;22.00;99.90;;;;;;5112181;28;20392;-73
2021/08/16 05:13:35;;;;;;;0.40;0.30;;;22.00;99.90;;;;;;5111766;28;20649;-73
2021/08/16 05:16:01;;;;;;;0.40;0.30;;;22.00;99.90;;;;;;5112053;28;20384;-74
2021/08/16 05:18:27;;;;;;;0.40;0.20;;;22.00;99.90;;;;;;5111716;28;20412;-73
2021/08/16 05:20:55;;;;;;;0.40;0.30;;;22.00;99.90;;;;;;5112284;28;20377;-73
2021/08/16 05:23:21;;;;;;;0.40;0.30;;;21.90;99.90;;;;;;5110770;28;20396;-73
2021/08/16 05:25:47;;;;;;;0.40;0.30;;;21.90;99.90;;;;;;5112228;28;20387;-73
2021/08/16 05:28:13;;;;;;;0.40;0.30;;;21.90;99.90;;;;;;5111936;28;20467;-73
2021/08/16 05:30:39;;;;;;;0.40;0.20;;;21.80;99.90;;;;;;5111575;28;20421;-72
2021/08/16 05:33:05;;;;;;;0.40;0.30;;;21.90;99.90;;;;;;5112231;28;20416;-73
2021/08/16 05:35:31;;;;;;;0.40;0.20;;;21.90;99.90;;;;;;5111214;28;20384;-72
2021/08/16 05:37:57;;;;;;;0.40;0.30;;;21.90;99.90;;;;;;5111764;28;20522;-75
2021/08/16 05:40:23;;;;;;;0.40;0.20;;;21.80;99.90;;;;;;5111300;28;20376;-73
2021/08/16 05:42:49;;;;;;;0.40;0.20;;;21.90;99.90;;;;;;5111940;28;20818;-73
2021/08/16 05:45:15;;;;;;;0.40;0.30;;;21.80;99.90;;;;;;5111845;28;20404;-72
2021/08/16 05:47:41;;;;;;;0.40;0.20;;;21.70;99.90;;;;;;5111132;28;20421;-73
2021/08/16 05:50:07;;;;;;;0.40;0.20;;;21.70;99.90;;;;;;5111868;28;20434;-74
2021/08/16 05:52:34;;;;;;;0.40;0.20;;;21.70;99.90;;;;;;5111163;28;20521;-73
2021/08/16 05:55:00;;;;;;;0.40;0.30;;;21.70;99.90;;;;;;5111746;28;20377;-73
2021/08/16 05:57:27;;;;;;;0.40;0.30;;;21.70;99.90;;;;;;5110856;28;20384;-74
2021/08/16 05:59:52;;;;;;;0.40;0.20;;;21.70;99.90;;;;;;5093405;28;20865;-73
2021/08/16 06:02:18;;;;;;;0.40;0.20;;;21.60;99.90;;;;;;5110998;28;20416;-72
2021/08/16 06:04:44;;;;;;;0.40;0.30;;;21.60;99.90;;;;;;5111676;28;20413;-72
2021/08/16 06:07:10;;;;;;;0.40;0.20;;;21.60;99.90;;;;;;5110869;28;20384;-74
2021/08/16 06:09:35;;;;;;;0.40;0.30;;;21.50;99.90;;;;;;5110894;28;20884;-74
2021/08/16 06:12:01;;;;;;;0.40;0.20;;;21.50;99.90;;;;;;5110841;28;20918;-74
2021/08/16 06:14:26;;;;;;;0.40;0.30;;;21.40;99.90;;;;;;5110689;28;20416;-73
2021/08/16 06:16:52;;;;;;;0.40;0.20;;;21.50;99.90;;;;;;5111205;28;20955;-73
2021/08/16 06:19:18;;;;;;;0.40;0.20;;;21.50;99.90;;;;;;5111151;28;20406;-72
2021/08/16 06:21:43;;;;;;;0.40;0.20;;;21.40;99.90;;;;;;5110782;28;20499;-73
2021/08/16 06:24:11;;;;;;;0.40;0.20;;;21.40;99.90;;;;;;5111131;28;20388;-73
2021/08/16 06:26:37;;;;;;;0.40;0.30;;;21.50;99.90;;;;;;5110752;28;20380;-72
2021/08/16 06:29:03;;;;;;;0.40;0.20;;;21.40;99.90;;;;;;5111409;28;20380;-73
2021/08/16 06:31:29;;;;;;;0.40;0.30;;;21.40;99.90;;;;;;5110639;28;20485;-73
2021/08/16 06:33:55;;;;;;;0.40;0.20;;;21.40;99.90;;;;;;5111814;28;20383;-74
2021/08/16 06:36:20;;;;;;;0.40;0.30;;;21.40;99.90;;;;;;5114875;28;20372;-73
2021/08/16 06:38:48;;;;;;;0.40;0.20;;;21.40;99.90;;;;;;5115487;28;20373;-74
2021/08/16 06:41:18;;;;;;;0.40;0.20;;;21.40;99.90;;;;;;5115329;28;20388;-73
2021/08/16 06:43:46;;;;;;;0.40;0.30;;;21.50;99.90;;;;;;5113885;28;20396;-74
2021/08/16 06:46:14;;;;;;;0.40;0.30;;;21.50;99.90;;;;;;5115359;28;20376;-74
2021/08/16 06:48:39;;;;;;;0.40;0.20;;;21.60;99.90;;;;;;5114590;28;20392;-75
2021/08/16 06:51:05;;;;;;;0.40;0.20;;;21.50;99.90;;;;;;5114999;28;20381;-73
2021/08/16 06:53:31;;;;;;;0.40;0.20;;;21.50;99.90;;;;;;5114549;28;20444;-75
2021/08/16 06:55:56;;;;;;;0.40;0.20;;;21.40;99.90;;;;;;5115013;28;20395;-73
2021/08/16 06:58:22;;;;;;;0.40;0.28;;;21.50;99.90;;;;;;5113936;28;20380;-73
2021/08/16 07:00:48;;;;;;;0.40;0.20;;;21.50;99.90;;;;;;5114776;28;20400;-73
2021/08/16 07:03:13;;;;;;;0.40;0.28;;;21.40;99.90;;;;;;5114901;28;20432;-73
2021/08/16 07:05:46;;;;;;;0.40;0.20;;;21.50;99.90;;;;;;5114732;28;20629;-73
2021/08/16 07:08:12;;;;;;;0.40;0.30;;;21.50;99.90;;;;;;5115044;28;20368;-72
2021/08/16 07:10:38;;;;;;;0.40;0.30;;;21.50;99.90;;;;;;5114486;28;20407;-73
2021/08/16 07:13:04;;;;;;;0.40;0.20;;;21.40;99.90;;;;;;5114852;28;20427;-76
2021/08/16 07:15:30;;;;;;;0.40;0.30;;;21.30;99.90;;;;;;5114756;28;20795;-73
2021/08/16 07:17:56;;;;;;;0.40;0.20;;;21.40;99.90;;;;;;5114500;28;20461;-74
2021/08/16 07:20:22;;;;;;;0.40;0.30;;;21.40;99.90;;;;;;5114073;28;20377;-73
2021/08/16 07:22:47;;;;;;;0.40;0.30;;;21.60;99.90;;;;;;5114776;28;20476;-74
2021/08/16 07:25:13;;;;;;;0.40;0.20;;;21.70;99.90;;;;;;5114484;28;20737;-75
2021/08/16 07:27:39;;;;;;;0.40;0.20;;;21.90;99.90;;;;;;5113359;28;20400;-72
2021/08/16 07:30:05;;;;;;;0.40;0.20;;;21.80;99.90;;;;;;5114175;28;20393;-73
2021/08/16 07:32:31;;;;;;;0.40;0.20;;;22.00;99.90;;;;;;5113477;28;20398;-73
2021/08/16 07:34:57;;;;;;;0.40;0.20;;;21.90;99.90;;;;;;5113701;28;20561;-72
2021/08/16 07:37:22;;;;;;;0.40;0.20;;;22.00;99.90;;;;;;5113330;28;20467;-73
2021/08/16 07:39:48;;;;;;;0.40;0.20;;;21.90;99.90;;;;;;5114208;28;20468;-73
2021/08/16 07:42:13;;;;;;;0.40;0.20;;;22.20;99.90;;;;;;5114363;28;20495;-73
2021/08/16 07:44:39;;;;;;;0.40;0.20;;;22.20;99.90;;;;;;5113756;28;20381;-72
2021/08/16 07:47:05;;;;;;;0.40;0.20;;;22.30;99.90;;;;;;5112706;28;20459;-72
2021/08/16 07:49:32;;;;;;;0.40;0.30;;;22.20;99.90;;;;;;5113600;28;20388;-72
2021/08/16 07:51:58;;;;;;;0.40;0.20;;;22.30;99.90;;;;;;5095982;28;20868;-72
2021/08/16 07:54:24;;;;;;;0.40;0.20;;;22.40;99.90;;;;;;5113748;28;20847;-72
2021/08/16 07:56:51;;;;;;;0.40;0.20;;;22.40;99.90;;;;;;5114028;28;20455;-74
2021/08/16 07:59:20;;;;;;;0.40;0.30;;;22.30;99.90;;;;;;5114133;28;20453;-73
2021/08/16 08:01:46;;;;;;;0.40;0.20;;;22.30;99.90;;;;;;5094820;28;20412;-73
2021/08/16 08:04:12;;;;;;;0.40;0.20;;;22.20;99.90;;;;;;5113877;27;20407;-74
2021/08/16 08:06:38;;;;;;;0.40;0.20;;;22.30;99.90;;;;;;5094661;28;20852;-74
2021/08/16 08:09:04;;;;;;;0.40;0.30;;;22.30;99.90;;;;;;5113835;27;20392;-74
2021/08/16 08:11:30;;;;;;;0.40;0.20;;;22.40;99.90;;;;;;5113011;28;20395;-72
2021/08/16 08:13:56;;;;;;;0.40;0.22;;;22.30;99.90;;;;;;5109321;28;20455;-72
2021/08/16 08:16:21;;;;;;;0.40;0.20;;;22.20;99.90;;;;;;5113455;28;20438;-73
2021/08/16 08:18:47;;;;;;;0.40;0.20;;;22.20;99.90;;;;;;5112966;28;20383;-73
2021/08/16 08:21:13;;;;;;;0.40;0.30;;;22.20;99.90;;;;;;5113439;28;20480;-73
2021/08/16 08:23:39;;;;;;;0.40;0.20;;;22.20;99.90;;;;;;5112708;28;20820;-74
2021/08/16 08:26:05;;;;;;;0.40;0.30;;;22.20;99.90;;;;;;5095404;28;20416;-73
2021/08/16 08:28:31;;;;;;;0.40;0.20;;;22.30;99.90;;;;;;5112981;28;20375;-72
2021/08/16 08:30:56;;;;;;;0.40;0.30;;;22.20;99.90;;;;;;5112761;28;20873;-72
2021/08/16 08:33:23;;;;;;;0.40;0.20;;;22.20;99.90;;;;;;5113188;28;20384;-72
2021/08/16 08:35:50;;;;;;;0.40;0.20;;;22.20;99.90;;;;;;5112634;28;20385;-74
2021/08/16 08:38:16;;;;;;;0.40;0.20;;;22.30;99.90;;;;;;5113335;28;20396;-73
2021/08/16 08:40:42;;;;;;;0.40;0.30;;;22.30;99.90;;;;;;5094403;28;20388;-72
2021/08/16 08:43:09;;;;;;;0.40;0.30;;;22.30;99.90;;;;;;5113118;28;20827;-74
2021/08/16 08:45:36;;;;;;;0.40;0.30;;;22.30;99.90;;;;;;5112600;28;20433;-73
2021/08/16 08:48:02;;;;;;;0.40;0.20;;;22.20;99.90;;;;;;5113966;27;20876;-72
2021/08/16 08:50:28;;;;;;;0.40;0.20;;;22.10;99.90;;;;;;5111803;28;20815;-72
2021/08/16 08:52:58;;;;;;;0.40;0.20;;;22.00;99.90;;;;;;5113144;28;20467;-72
2021/08/16 08:55:23;;;;;;;0.40;0.20;;;21.90;99.90;;;;;;5113102;28;20384;-72
2021/08/16 08:57:49;;;;;;;0.40;0.20;;;21.90;99.90;;;;;;5112158;28;20745;-72
2021/08/16 09:00:16;;;;;;;0.40;0.20;;;21.80;99.90;;;;;;5113080;28;20437;-72
2021/08/16 09:02:42;;;;;;;0.40;0.20;;;21.60;99.90;;;;;;5111712;28;20451;-72
2021/08/16 09:05:08;;;;;;;0.40;0.30;;;21.60;99.90;;;;;;5111225;28;20380;-74
2021/08/16 09:07:39;;;;;;;0.40;0.30;;;21.10;99.90;;;;;;5109762;28;20389;-73
2021/08/16 09:10:11;;;;;;;0.40;0.20;;;21.00;99.90;;;;;;5111258;28;20459;-73
2021/08/16 09:12:37;;;;;;;0.40;0.20;;;20.70;99.90;;;;;;5090446;28;20439;-73
2021/08/16 09:15:16;;;;;;;0.40;0.20;;;20.60;99.90;;;;;;5110860;28;20401;-72
2021/08/16 09:17:42;;;;;;;0.40;0.20;;;20.50;99.90;;;;;;5076040;28;20399;-72
2021/08/16 09:20:27;;;;;;;0.40;0.20;;;20.40;99.90;;;;;;5111424;28;20404;-72
2021/08/16 09:23:01;;;;;;;0.40;0.30;;;20.40;99.90;;;;;;5112402;28;20412;-73
2021/08/16 09:25:31;;;;;;;0.40;0.20;;;20.40;99.90;;;;;;5110821;28;20396;-72
2021/08/16 09:27:58;;;;;;;0.40;0.20;;;20.70;99.90;;;;;;5112038;28;20397;-72
2021/08/16 09:30:38;;;;;;;0.40;0.30;;;20.90;99.90;;;;;;5111973;27;20426;-72
2021/08/16 09:33:15;;;;;;;0.40;0.20;;;21.00;99.90;;;;;;5092914;28;20399;-72
2021/08/16 09:35:53;;;;;;;0.40;0.20;;;20.90;99.90;;;;;;5111562;28;20385;-72
2021/08/16 09:38:34;;;;;;;0.40;0.20;;;21.20;99.90;;;;;;5111463;28;20416;-72
2021/08/16 09:41:01;;;;;;;0.40;0.30;;;21.20;99.90;;;;;;5112006;28;20373;-73
2021/08/16 09:43:28;;;;;;;0.40;0.20;;;21.30;99.90;;;;;;5111749;28;20512;-72
2021/08/16 09:45:54;;;;;;;0.40;0.20;;;21.50;99.90;;;;;;5111320;28;20380;-71
2021/08/16 09:48:22;;;;;;;0.40;0.20;;;21.40;99.90;;;;;;5111857;28;20383;-72
2021/08/16 09:50:51;;;;;;;0.40;0.20;;;21.40;99.90;;;;;;5092874;28;20439;-72
2021/08/16 09:53:18;;;;;;;0.40;0.20;;;21.90;99.90;;;;;;5111989;28;20376;-74
2021/08/16 09:55:48;;;;;;;0.40;0.20;;;21.60;99.90;;;;;;5110196;27;20404;-73
2021/08/16 09:58:16;;;;;;;0.40;0.30;;;21.60;99.90;;;;;;5110849;28;20876;-72
2021/08/16 10:00:43;;;;;;;0.40;0.20;;;21.40;99.90;;;;;;5109063;28;20431;-72
2021/08/16 10:03:11;;;;;;;0.40;0.20;;;21.40;99.90;;;;;;5108801;28;20404;-72
2021/08/16 10:05:39;;;;;;;0.40;0.20;;;21.30;99.90;;;;;;5110741;28;20396;-74
2021/08/16 10:08:07;;;;;;;0.40;0.30;;;21.30;99.90;;;;;;5111615;28;20381;-73
2021/08/16 10:10:35;;;;;;;0.40;0.30;;;21.20;99.90;;;;;;5110635;28;20791;-73
2021/08/16 10:13:02;;;;;;;0.40;0.30;;;21.30;99.90;;;;;;5112855;28;20396;-72
2021/08/16 10:15:31;;;;;;;0.40;0.25;;;21.20;99.90;;;;;;5114236;28;20714;-72
2021/08/16 10:17:58;;;;;;;0.40;0.20;;;21.30;99.90;;;;;;5114911;28;20434;-73
2021/08/16 10:20:28;;;;;;;0.40;0.20;;;21.20;99.90;;;;;;5112487;28;20441;-72
2021/08/16 10:22:54;;;;;;;0.40;0.20;;;21.40;99.90;;;;;;5109732;28;20483;-73
2021/08/16 10:25:20;;;;;;;0.40;0.20;;;21.20;99.90;;;;;;5113752;28;20442;-73
2021/08/16 10:27:46;;;;;;;0.40;0.30;;;20.90;99.90;;;;;;5111960;28;20396;-72
2021/08/16 10:30:16;;;;;;;0.40;0.30;;;21.00;99.90;;;;;;5110968;28;20388;-73
2021/08/16 10:32:43;;;;;;;0.40;0.20;;;21.30;99.90;;;;;;5109790;28;20482;-73
2021/08/16 10:35:13;;;;;;;0.40;0.30;;;21.30;99.90;;;;;;5112167;28;20404;-73
2021/08/16 10:37:42;;;;;;;0.40;0.20;;;21.10;99.90;;;;;;5110456;28;20906;-73
2021/08/16 10:40:25;;;;;;;0.40;0.30;;;20.90;99.90;;;;;;5111646;28;20716;-72
2021/08/16 10:42:53;;;;;;;0.40;0.30;;;21.00;99.90;;;;;;5110680;28;20415;-73
2021/08/16 10:45:28;;;;;;;0.40;0.30;;;20.80;99.90;;;;;;5111518;28;20384;-73
2021/08/16 10:48:01;;;;;;;0.40;0.20;;;20.70;99.90;;;;;;5109540;28;20388;-73
2021/08/16 10:50:27;;;;;;;0.40;0.30;;;20.70;99.90;;;;;;5110303;28;20384;-73
2021/08/16 10:53:05;;;;;;;0.40;0.30;;;20.60;99.90;;;;;;5110509;28;20375;-73
2021/08/16 10:55:39;;;;;;;0.40;0.30;;;20.60;99.90;;;;;;5108528;28;20373;-73
2021/08/16 10:58:10;;;;;;;0.40;0.30;;;20.70;99.90;;;;;;5112061;28;20372;-71
2021/08/16 11:00:38;;;;;;;0.40;0.20;;;20.70;99.90;;;;;;5110595;28;20377;-74
2021/08/16 11:03:04;;;;;;;0.40;0.30;;;20.70;99.90;;;;;;5111087;28;20516;-73
2021/08/16 11:05:38;;;;;;;0.40;0.20;;;20.70;99.90;;;;;;5113313;28;20384;-72
2021/08/16 11:08:05;;;;;;;0.40;0.30;;;20.60;99.90;;;;;;5093837;28;20384;-72
2021/08/16 11:10:48;;;;;;;0.40;0.20;;;20.70;99.90;;;;;;5112321;28;20434;-74
2021/08/16 11:13:32;;;;;;;0.40;0.20;;;20.80;99.90;;;;;;5111707;28;20986;-73
2021/08/16 11:16:05;;;;;;;0.40;0.20;;;20.90;99.90;;;;;;5095053;28;20392;-72
2021/08/16 11:18:30;;;;;;;0.60;0.60;;;21.20;99.90;;;;;;5112399;28;20380;-71
2021/08/16 11:20:58;;;;;;;0.40;0.20;;;21.50;99.90;;;;;;5112118;28;20381;-73
2021/08/16 11:23:24;;;;;;;0.40;0.30;;;21.70;99.90;;;;;;5115673;28;20415;-72
2021/08/16 11:25:58;;;;;;;0.40;0.20;;;21.40;99.90;;;;;;5114687;28;20372;-72
2021/08/16 11:28:27;;;;;;;0.40;0.20;;;21.40;99.90;;;;;;5116545;28;20377;-73
2021/08/16 11:31:02;;;;;;;0.40;0.30;;;21.40;99.90;;;;;;5097978;28;20737;-72
2021/08/16 11:33:29;;;;;;;0.40;0.30;;;21.50;99.90;;;;;;5115878;28;20888;-75
2021/08/16 11:36:10;;;;;;;0.40;0.20;;;21.60;99.90;;;;;;5114864;28;20384;-72
2021/08/16 11:38:37;;;;;;;0.40;0.20;;;21.90;99.90;;;;;;5114563;28;20900;-72
2021/08/16 11:41:05;;;;;;;0.40;0.30;;;22.20;99.90;;;;;;5096442;28;20422;-72
2021/08/16 11:43:30;;;;;;;0.40;0.20;;;22.40;99.90;;;;;;5114450;28;20416;-73
2021/08/16 11:45:56;;;;;;;0.40;0.30;;;21.80;99.90;;;;;;5114605;28;20402;-73
2021/08/16 11:48:23;;;;;;;0.40;0.30;;;21.50;99.90;;;;;;5114484;28;20384;-75
2021/08/16 11:50:56;;;;;;;0.40;0.30;;;21.40;99.90;;;;;;5113666;28;20849;-71
2021/08/16 11:53:22;;;;;;;0.40;0.20;;;21.20;98.10;;;;;;5097699;28;20418;-70
2021/08/16 11:55:47;;;;;;;0.40;0.28;;;21.70;97.90;;;;;;5113974;28;20433;-73
2021/08/16 11:58:13;;;;;;;0.40;0.20;;;22.10;96.20;;;;;;5114922;28;20408;-72
2021/08/16 12:00:40;;;;;;;0.40;0.30;;;22.50;94.50;;;;;;5113234;28;20915;-73
2021/08/16 12:03:07;;;;;;;0.40;0.25;;;22.80;93.50;;;;;;5113901;28;20902;-72
2021/08/16 12:05:32;;;;;;;0.40;0.20;;;22.40;94.50;;;;;;5113691;28;20369;-72
2021/08/16 12:08:01;;;;;;;0.40;0.30;;;22.30;93.50;;;;;;5092702;28;20392;-72
2021/08/16 12:10:40;;;;;;;0.40;0.30;;;21.90;93.30;;;;;;5107738;28;20480;-73
2021/08/16 12:13:07;;;;;;;0.40;0.20;;;21.90;93.50;;;;;;5100315;28;20389;-72
2021/08/16 12:15:45;;;;;;;0.40;0.30;;;22.00;92.80;;;;;;5112762;28;20396;-71
2021/08/16 12:18:14;;;;;;;0.40;0.20;;;22.40;91.70;;;;;;5113009;28;20717;-73
2021/08/16 12:20:42;;;;;;;0.40;0.20;;;23.00;90.90;;;;;;5113378;28;20384;-74
2021/08/16 12:23:08;;;;;;;0.40;0.30;;;23.30;89.60;;;;;;5113501;28;20420;-72
2021/08/16 12:25:46;;;;;;;0.40;0.20;;;23.30;90.10;;;;;;5112800;28;20761;-72
2021/08/16 12:28:12;;;;;;;0.40;0.30;;;22.70;87.80;;;;;;5113539;28;20369;-74
2021/08/16 12:30:38;;;;;;;0.40;0.20;;;22.40;89.20;;;;;;5113049;28;20377;-72
2021/08/16 12:33:18;;;;;;;0.40;0.20;;;21.90;89.20;;;;;;5091603;28;20399;-71
2021/08/16 12:35:56;;;;;;;0.40;0.30;;;21.60;88.80;;;;;;5112924;28;20380;-72
2021/08/16 12:38:30;;;;;;;0.40;0.20;;;21.60;89.10;;;;;;5113151;28;20380;-73
2021/08/16 12:41:06;;;;;;;0.40;0.30;;;21.50;90.00;;;;;;5112479;28;20380;-73
2021/08/16 12:43:40;;;;;;;0.40;0.30;;;21.50;90.50;;;;;;5112947;28;20419;-72
2021/08/16 12:46:06;;;;;;;0.40;0.20;;;21.40;90.50;;;;;;5113911;28;20940;-72
2021/08/16 12:48:44;;;;;;;0.40;0.20;;;21.60;89.70;;;;;;5113089;28;20721;-71